Main page
METAR-TAF:

METAR-TAF

Airports :

Hemavan Airport

Hemavan, Sweden

latitude: 65-48-22N, longitude: 015-04-58E, elevation: 458 m

Current weather observation

The report was made 32 minutes ago, at 17:20 UTC
Wind 8 kt from the North, varying between West/Northwest and North/Northeast
Temperature 10°C
Humidity 100%
Pressure 1009 hPa
Visibility 10 km or more
light rain,

METAR: ESUT 231720Z AUTO 35008KT 300V030 9999 -RA SCT018/// BKN036/// OVC051/// 10/10 Q1009 RESHRA

Time: 19:52 (17:52 UTC)


TAF: missing

Weather observations and forecasts of more than 4000 airports (METAR and TAF reports).

The available stations are represented by yellow and red dots on the map.

Hover mouse over dot to see the name of the station.

Then click to see weather observations and forecasts.

To change the map : click on the green buttons with a black cross to zoom in, on the green button with a dash to zoom out, or on the green arrows for adjacent maps.


METAR-TAF: